createdAt,value
2023-03-01T00:01:25.124Z,1.46
2023-03-01T00:03:53.850Z,1.54
2023-03-01T00:06:22.321Z,1.53
2023-03-01T00:08:50.335Z,1.42
2023-03-01T00:11:21.683Z,1.47
2023-03-01T00:13:52.668Z,1.62
2023-03-01T00:16:34.802Z,1.55
2023-03-01T00:19:02.395Z,1.59
2023-03-01T00:21:30.065Z,1.59
2023-03-01T00:23:58.290Z,1.60
2023-03-01T00:26:27.184Z,1.46
2023-03-01T00:28:54.842Z,1.42
2023-03-01T00:31:25.527Z,1.42
2023-03-01T00:34:00.432Z,1.47
2023-03-01T00:36:31.414Z,1.44
2023-03-01T00:38:58.852Z,1.43
2023-03-01T00:41:29.691Z,1.39
2023-03-01T00:43:57.129Z,1.43
2023-03-01T00:46:27.895Z,1.44
2023-03-01T00:48:55.398Z,1.38
2023-03-01T00:51:29.128Z,1.49
2023-03-01T00:53:59.248Z,1.43
2023-03-01T00:56:27.615Z,1.34
2023-03-01T00:58:54.742Z,1.36
2023-03-01T01:01:28.535Z,1.37
2023-03-01T01:04:08.380Z,1.30
2023-03-01T01:06:40.803Z,1.36
2023-03-01T01:09:09.492Z,1.31
2023-03-01T01:11:40.016Z,1.24
2023-03-01T01:14:07.113Z,1.25
2023-03-01T01:16:34.516Z,1.24
2023-03-01T01:19:01.676Z,1.21
2023-03-01T01:21:29.407Z,1.15
2023-03-01T01:23:58.094Z,1.21
2023-03-01T01:26:35.383Z,1.21
2023-03-01T01:29:05.097Z,1.22
2023-03-01T01:31:33.873Z,1.24
2023-03-01T01:34:04.239Z,1.35
2023-03-01T01:36:31.886Z,1.34
2023-03-01T01:38:59.706Z,1.20
2023-03-01T01:41:29.973Z,1.14
2023-03-01T01:44:34.705Z,1.14
2023-03-01T01:47:12.838Z,1.25
2023-03-01T01:49:47.179Z,1.17
2023-03-01T01:52:32.660Z,1.14
2023-03-01T01:55:13.086Z,1.16
2023-03-01T01:57:48.384Z,1.05
2023-03-01T02:00:22.281Z,1.10
2023-03-01T02:02:58.812Z,1.07
2023-03-01T02:05:29.334Z,1.01
2023-03-01T02:07:59.380Z,1.04
2023-03-01T02:10:28.847Z,1.05
2023-03-01T02:12:57.334Z,0.97
2023-03-01T02:15:25.352Z,0.89
2023-03-01T02:17:53.429Z,0.98
2023-03-01T02:20:40.641Z,0.97
2023-03-01T02:23:08.904Z,1.02
2023-03-01T02:25:54.923Z,1.02
2023-03-01T02:28:47.767Z,0.99
2023-03-01T02:31:39.941Z,0.98
2023-03-01T02:34:08.563Z,0.97
2023-03-01T02:37:12.869Z,0.99
2023-03-01T02:39:51.754Z,1.01
2023-03-01T02:42:27.617Z,0.89
2023-03-01T02:44:54.901Z,0.86
2023-03-01T02:47:22.072Z,0.85
2023-03-01T02:49:49.261Z,0.91
2023-03-01T02:52:34.758Z,1.00
2023-03-01T02:55:07.798Z,0.88
2023-03-01T02:57:38.875Z,0.89
2023-03-01T03:00:20.855Z,0.90
2023-03-01T03:02:54.017Z,0.85
2023-03-01T03:05:31.234Z,0.88
2023-03-01T03:08:00.858Z,0.86
2023-03-01T03:10:36.652Z,0.88
2023-03-01T03:13:11.073Z,0.82
2023-03-01T03:15:40.090Z,0.87
2023-03-01T03:18:12.162Z,0.95
2023-03-01T03:20:42.205Z,0.80
2023-03-01T03:23:09.850Z,0.83
2023-03-01T03:25:38.994Z,0.73
2023-03-01T03:28:10.990Z,0.70
2023-03-01T03:30:41.748Z,0.80
2023-03-01T03:33:13.156Z,0.78
2023-03-01T03:35:45.028Z,0.82
2023-03-01T03:38:17.942Z,0.90
2023-03-01T03:40:50.767Z,0.92
2023-03-01T03:43:22.148Z,0.79
2023-03-01T03:45:51.919Z,0.80
2023-03-01T03:48:20.122Z,0.94
2023-03-01T03:50:53.828Z,0.75
2023-03-01T03:53:23.382Z,0.81
2023-03-01T03:55:50.558Z,0.72
2023-03-01T03:58:20.714Z,0.75
2023-03-01T04:00:51.266Z,0.91
2023-03-01T04:03:21.002Z,0.84
2023-03-01T04:05:49.045Z,0.79
2023-03-01T04:08:16.215Z,0.76
2023-03-01T04:10:47.007Z,0.73
2023-03-01T04:13:21.527Z,0.76
2023-03-01T04:15:53.352Z,0.76
2023-03-01T04:18:23.129Z,0.69
2023-03-01T04:20:53.258Z,0.69
2023-03-01T04:23:21.905Z,0.70
2023-03-01T04:25:58.437Z,0.82
2023-03-01T04:28:35.660Z,0.68
2023-03-01T04:31:15.211Z,0.80
2023-03-01T04:34:03.476Z,0.77
2023-03-01T04:36:31.795Z,0.81
2023-03-01T04:38:59.155Z,0.74
2023-03-01T04:41:27.023Z,0.71
2023-03-01T04:43:54.456Z,0.77
2023-03-01T04:46:22.695Z,0.69
2023-03-01T04:48:49.985Z,0.64
2023-03-01T04:51:17.741Z,0.63
2023-03-01T04:53:45.606Z,0.66
2023-03-01T04:56:14.997Z,0.62
2023-03-01T04:58:42.610Z,0.63
2023-03-01T05:01:18.513Z,0.67
2023-03-01T05:03:52.456Z,0.69
2023-03-01T05:06:21.364Z,0.73
2023-03-01T05:08:48.684Z,0.61
2023-03-01T05:11:15.798Z,0.57
2023-03-01T05:13:43.334Z,0.61
2023-03-01T05:16:13.705Z,0.60
2023-03-01T05:18:42.416Z,0.62
2023-03-01T05:21:13.349Z,0.56
2023-03-01T05:23:40.757Z,0.58
2023-03-01T05:26:16.149Z,0.61
2023-03-01T05:28:49.790Z,0.63
2023-03-01T05:31:16.992Z,0.63
2023-03-01T05:33:44.518Z,0.65
2023-03-01T05:36:11.867Z,0.69
2023-03-01T05:38:38.940Z,0.75
2023-03-01T05:41:06.160Z,0.66
2023-03-01T05:43:35.023Z,0.76
2023-03-01T05:46:02.407Z,0.91
2023-03-01T05:48:30.618Z,0.93
2023-03-01T05:51:01.701Z,1.13
2023-03-01T05:53:28.952Z,1.13
2023-03-01T05:55:56.036Z,1.22
2023-03-01T05:58:23.102Z,1.36
2023-03-01T06:00:51.724Z,1.51
2023-03-01T06:03:19.606Z,1.61
2023-03-01T06:05:47.218Z,1.75
2023-03-01T06:08:14.831Z,1.86
2023-03-01T06:10:42.320Z,2.00
2023-03-01T06:13:09.832Z,2.17
2023-03-01T06:15:36.911Z,2.39
2023-03-01T06:18:04.336Z,2.50
2023-03-01T06:20:31.500Z,2.69
2023-03-01T06:22:58.848Z,2.84
2023-03-01T06:25:28.043Z,2.95
2023-03-01T06:27:55.722Z,3.15
2023-03-01T06:30:25.803Z,3.44
2023-03-01T06:32:53.701Z,3.62
2023-03-01T06:35:21.061Z,3.84
2023-03-01T06:37:49.127Z,4.06
2023-03-01T06:40:17.271Z,4.10
2023-03-01T06:42:50.767Z,4.28
2023-03-01T06:45:20.607Z,4.44
2023-03-01T06:47:48.224Z,4.56
2023-03-01T06:50:16.688Z,4.73
2023-03-01T06:55:14.417Z,5.19
2023-03-01T06:57:41.571Z,5.43
2023-03-01T07:00:09.683Z,5.99
2023-03-01T07:02:36.812Z,7.09
2023-03-01T07:05:04.086Z,8.22
2023-03-01T07:07:31.271Z,9.12
2023-03-01T07:09:58.354Z,9.86
2023-03-01T07:12:25.486Z,11.03
2023-03-01T07:14:52.553Z,11.89
2023-03-01T07:17:19.982Z,12.50
2023-03-01T07:19:46.995Z,13.36
2023-03-01T07:22:14.014Z,13.70
2023-03-01T07:24:43.019Z,13.91
2023-03-01T07:27:10.932Z,14.21
2023-03-01T07:29:38.300Z,15.15
2023-03-01T07:32:06.723Z,15.49
2023-03-01T07:34:33.894Z,16.18
2023-03-01T07:37:00.921Z,16.51
2023-03-01T07:39:28.043Z,16.87
2023-03-01T07:41:55.115Z,16.98
2023-03-01T07:44:22.369Z,17.34
2023-03-01T07:46:49.490Z,17.47
2023-03-01T07:49:16.482Z,17.86
2023-03-01T07:51:44.722Z,18.25
2023-03-01T07:54:11.710Z,18.78
2023-03-01T07:56:38.730Z,19.24
2023-03-01T07:59:05.765Z,19.26
2023-03-01T08:01:32.811Z,19.61
2023-03-01T08:03:59.879Z,19.62
2023-03-01T08:06:27.080Z,19.72
2023-03-01T08:08:56.383Z,19.83
2023-03-01T08:11:24.422Z,20.13
2023-03-01T08:13:53.086Z,19.95
2023-03-01T08:16:21.171Z,19.98
2023-03-01T08:18:48.380Z,20.04
2023-03-01T08:21:18.426Z,19.71
2023-03-01T08:23:45.825Z,20.08
2023-03-01T08:26:21.151Z,20.20
2023-03-01T08:28:50.022Z,20.11
2023-03-01T08:31:22.468Z,19.95
2023-03-01T08:33:56.405Z,20.05
2023-03-01T08:36:31.166Z,20.00
2023-03-01T08:38:59.383Z,19.85
2023-03-01T08:41:27.307Z,19.91
2023-03-01T08:43:59.739Z,19.65
2023-03-01T08:46:30.061Z,20.04
2023-03-01T08:48:57.819Z,20.42
2023-03-01T08:51:26.273Z,20.74
2023-03-01T08:53:53.776Z,20.73
2023-03-01T08:56:21.068Z,20.76
2023-03-01T08:58:49.913Z,20.80
2023-03-01T09:01:19.883Z,20.67
2023-03-01T09:03:47.824Z,20.42
2023-03-01T09:06:16.811Z,20.13
2023-03-01T09:08:47.488Z,20.00
2023-03-01T09:11:21.760Z,20.35
2023-03-01T09:13:50.014Z,20.73
2023-03-01T09:16:20.653Z,20.95
2023-03-01T09:18:55.039Z,20.81
2023-03-01T09:21:38.987Z,20.86
2023-03-01T09:24:14.510Z,20.86
2023-03-01T09:26:41.788Z,20.50
2023-03-01T09:29:10.598Z,20.04
2023-03-01T09:31:37.916Z,20.16
2023-03-01T09:34:05.185Z,20.05
2023-03-01T09:36:32.945Z,19.94
2023-03-01T09:39:01.134Z,20.13
2023-03-01T09:41:58.833Z,20.33
2023-03-01T09:44:47.363Z,20.61
2023-03-01T09:47:27.502Z,20.79
2023-03-01T09:50:21.939Z,20.99
2023-03-01T09:53:04.665Z,21.37
2023-03-01T09:55:39.150Z,21.38
2023-03-01T09:58:48.554Z,21.82
2023-03-01T10:01:54.601Z,22.06
2023-03-01T10:04:55.273Z,22.40
2023-03-01T10:07:47.633Z,22.52
2023-03-01T10:10:44.255Z,22.96
2023-03-01T10:13:45.928Z,22.91
2023-03-01T10:16:32.387Z,23.19
2023-03-01T10:19:06.123Z,23.35
2023-03-01T10:21:44.126Z,23.41
2023-03-01T10:24:20.073Z,23.53
2023-03-01T10:27:29.605Z,23.54
2023-03-01T10:30:35.754Z,23.71
2023-03-01T10:33:21.457Z,23.74
2023-03-01T10:35:49.564Z,23.86
2023-03-01T10:38:18.715Z,23.88
2023-03-01T10:41:16.587Z,24.19
2023-03-01T10:43:50.864Z,24.09
2023-03-01T10:46:33.911Z,23.98
2023-03-01T10:49:24.304Z,24.15
2023-03-01T10:51:54.479Z,24.42
2023-03-01T10:54:23.498Z,24.12
2023-03-01T10:56:57.892Z,23.25
2023-03-01T10:59:36.419Z,22.78
2023-03-01T11:02:29.289Z,22.23
2023-03-01T11:05:03.852Z,21.95
2023-03-01T11:07:31.029Z,21.82
2023-03-01T11:09:58.119Z,21.21
2023-03-01T11:12:26.850Z,21.13
2023-03-01T11:14:57.989Z,21.29
2023-03-01T11:17:39.031Z,21.08
2023-03-01T11:20:14.594Z,21.34
2023-03-01T11:22:56.077Z,21.57
2023-03-01T11:25:34.387Z,21.41
2023-03-01T11:28:05.148Z,21.47
2023-03-01T11:31:09.416Z,21.22
2023-03-01T11:34:00.702Z,20.90
2023-03-01T11:36:37.333Z,20.82
2023-03-01T11:39:51.522Z,20.58
2023-03-01T11:43:03.942Z,20.86
2023-03-01T11:45:53.101Z,21.08
2023-03-01T11:48:49.878Z,21.00
2023-03-01T11:52:01.015Z,20.97
2023-03-01T11:55:08.932Z,20.92
2023-03-01T11:57:54.919Z,20.27
2023-03-01T12:00:51.950Z,20.64
2023-03-01T12:04:12.657Z,20.25
2023-03-01T12:07:02.471Z,20.12
2023-03-01T12:09:48.852Z,20.57
2023-03-01T12:12:39.818Z,19.68
2023-03-01T12:16:02.350Z,19.59
2023-03-01T12:18:41.461Z,19.88
2023-03-01T12:21:25.711Z,19.75
2023-03-01T12:24:22.324Z,19.92
2023-03-01T12:27:36.585Z,19.27
2023-03-01T12:30:52.691Z,18.93
2023-03-01T12:33:37.342Z,18.76
2023-03-01T12:36:13.429Z,18.59
2023-03-01T12:39:28.410Z,18.19
2023-03-01T12:42:03.897Z,18.18
2023-03-01T12:44:44.636Z,17.54
2023-03-01T12:47:32.576Z,17.33
2023-03-01T12:50:07.106Z,17.04
2023-03-01T12:52:41.817Z,16.80
2023-03-01T12:55:36.592Z,16.93
2023-03-01T12:58:49.810Z,16.67
2023-03-01T13:01:22.890Z,16.69
2023-03-01T13:04:25.441Z,16.44
2023-03-01T13:07:26.630Z,16.28
2023-03-01T13:10:23.852Z,16.02
2023-03-01T13:12:52.583Z,15.80
2023-03-01T13:15:31.185Z,16.22
2023-03-01T13:18:12.628Z,15.90
2023-03-01T13:20:49.899Z,15.35
2023-03-01T13:23:23.000Z,15.28
2023-03-01T13:26:16.584Z,15.34
2023-03-01T13:28:47.470Z,15.18
2023-03-01T13:31:17.180Z,15.12
2023-03-01T13:33:52.883Z,15.14
2023-03-01T13:36:29.085Z,15.19
2023-03-01T13:39:33.430Z,15.05
2023-03-01T13:42:01.389Z,14.71
2023-03-01T13:44:39.724Z,14.62
2023-03-01T13:47:06.831Z,14.48
2023-03-01T13:50:00.949Z,14.48
2023-03-01T13:52:36.233Z,14.69
2023-03-01T13:55:48.348Z,14.45
2023-03-01T13:58:27.571Z,14.37
2023-03-01T14:01:05.265Z,14.20
2023-03-01T14:03:40.918Z,14.07
2023-03-01T14:06:20.885Z,14.14
2023-03-01T14:08:52.019Z,14.11
2023-03-01T14:12:03.451Z,13.98
2023-03-01T14:14:57.998Z,13.81
2023-03-01T14:17:52.411Z,13.95
2023-03-01T14:20:24.323Z,13.84
2023-03-01T14:22:59.366Z,13.70
2023-03-01T14:25:35.814Z,13.74
2023-03-01T14:28:31.534Z,13.70
2023-03-01T14:31:01.381Z,13.55
2023-03-01T14:33:35.028Z,13.54
2023-03-01T14:36:07.822Z,13.39
2023-03-01T14:38:48.648Z,13.27
2023-03-01T14:41:26.815Z,13.37
2023-03-01T14:44:02.353Z,13.10
2023-03-01T14:46:39.781Z,13.23
2023-03-01T14:49:21.809Z,13.03
2023-03-01T14:52:19.545Z,12.91
2023-03-01T14:54:54.254Z,12.94
2023-03-01T14:57:27.316Z,12.70
2023-03-01T14:59:59.265Z,12.59
2023-03-01T15:02:29.774Z,12.55
2023-03-01T15:05:08.067Z,12.45
2023-03-01T15:07:41.316Z,12.61
2023-03-01T15:10:26.794Z,12.64
2023-03-01T15:12:54.483Z,12.71
2023-03-01T15:15:37.784Z,12.38
2023-03-01T15:18:24.910Z,12.16
2023-03-01T15:20:52.824Z,12.01
2023-03-01T15:23:28.617Z,11.95
2023-03-01T15:25:57.666Z,11.87
2023-03-01T15:28:32.620Z,11.75
2023-03-01T15:31:28.406Z,11.69
2023-03-01T15:34:10.477Z,11.64
2023-03-01T15:36:51.530Z,11.52
2023-03-01T15:39:40.914Z,11.50
2023-03-01T15:42:17.695Z,11.36
2023-03-01T15:44:46.207Z,11.25
2023-03-01T15:47:32.862Z,11.08
2023-03-01T15:50:01.913Z,11.01
2023-03-01T15:52:43.712Z,10.95
2023-03-01T15:55:30.711Z,10.80
2023-03-01T15:58:03.785Z,10.85
2023-03-01T16:00:31.230Z,10.85
2023-03-01T16:02:58.405Z,10.74
2023-03-01T16:05:33.558Z,10.56
2023-03-01T16:08:01.588Z,10.56
2023-03-01T16:10:29.403Z,10.44
2023-03-01T16:12:56.460Z,10.45
2023-03-01T16:15:33.417Z,10.34
2023-03-01T16:18:01.143Z,10.29
2023-03-01T16:20:32.791Z,10.26
2023-03-01T16:23:08.209Z,10.05
2023-03-01T16:25:36.594Z,10.01
2023-03-01T16:28:09.701Z,9.99
2023-03-01T16:30:39.137Z,10.05
2023-03-01T16:33:24.196Z,9.86
2023-03-01T16:35:54.456Z,9.81
2023-03-01T16:38:21.740Z,9.76
2023-03-01T16:40:51.752Z,9.67
2023-03-01T16:43:18.874Z,9.69
2023-03-01T16:45:46.509Z,9.60
2023-03-01T16:48:13.928Z,9.50
2023-03-01T16:50:41.274Z,9.52
2023-03-01T16:53:08.607Z,9.52
2023-03-01T16:55:35.847Z,9.46
2023-03-01T16:58:03.550Z,9.32
2023-03-01T17:00:30.640Z,9.39
2023-03-01T17:02:59.045Z,9.31
2023-03-01T17:05:27.021Z,9.24
2023-03-01T17:07:56.678Z,9.21
2023-03-01T17:10:23.923Z,9.14
2023-03-01T17:12:51.358Z,9.10
2023-03-01T17:15:18.697Z,9.10
2023-03-01T17:17:45.820Z,9.00
2023-03-01T17:20:13.644Z,8.93
2023-03-01T17:22:40.689Z,8.87
2023-03-01T17:25:10.965Z,8.82
2023-03-01T17:27:39.972Z,8.80
2023-03-01T17:30:10.062Z,8.66
2023-03-01T17:32:37.406Z,8.55
2023-03-01T17:35:05.491Z,8.61
2023-03-01T17:37:32.694Z,8.57
2023-03-01T17:39:59.907Z,8.46
2023-03-01T17:42:26.945Z,8.42
2023-03-01T17:44:54.012Z,8.33
2023-03-01T17:47:21.351Z,8.33
2023-03-01T17:49:48.514Z,8.29
2023-03-01T17:52:15.762Z,8.26
2023-03-01T17:54:42.795Z,8.28
2023-03-01T17:57:09.842Z,8.26
2023-03-01T17:59:38.471Z,8.22
2023-03-01T18:02:05.604Z,8.17
2023-03-01T18:04:32.662Z,8.05
2023-03-01T18:07:00.069Z,8.09
2023-03-01T18:09:28.605Z,8.04
2023-03-01T18:11:55.817Z,7.95
2023-03-01T18:14:23.419Z,7.92
2023-03-01T18:16:50.784Z,7.89
2023-03-01T18:19:17.987Z,7.88
2023-03-01T18:21:44.985Z,7.70
2023-03-01T18:24:12.089Z,7.73
2023-03-01T18:26:40.189Z,7.74
2023-03-01T18:29:08.307Z,7.64
2023-03-01T18:31:35.611Z,7.62
2023-03-01T18:34:04.337Z,7.62
2023-03-01T18:36:35.545Z,7.64
2023-03-01T18:39:08.182Z,7.57
2023-03-01T18:41:36.692Z,7.54
2023-03-01T18:44:05.695Z,7.49
2023-03-01T18:46:36.117Z,7.40
2023-03-01T18:49:04.920Z,7.40
2023-03-01T18:51:32.559Z,7.35
2023-03-01T18:53:59.821Z,7.30
2023-03-01T18:56:31.420Z,7.29
2023-03-01T18:59:00.298Z,7.22
2023-03-01T19:01:31.063Z,7.16
2023-03-01T19:03:59.233Z,7.00
2023-03-01T19:06:33.287Z,7.07
2023-03-01T19:09:00.748Z,7.08
2023-03-01T19:11:30.976Z,7.09
2023-03-01T19:13:59.658Z,7.07
2023-03-01T19:16:30.704Z,7.01
2023-03-01T19:19:01.759Z,6.91
2023-03-01T19:21:31.767Z,6.84
2023-03-01T19:24:00.259Z,6.82
2023-03-01T19:26:31.239Z,6.67
2023-03-01T19:28:58.741Z,6.76
2023-03-01T19:31:29.942Z,6.74
2023-03-01T19:34:11.175Z,6.65
2023-03-01T19:36:42.726Z,6.68
2023-03-01T19:39:13.628Z,6.61
2023-03-01T19:41:41.727Z,6.67
2023-03-01T19:44:09.437Z,6.63
2023-03-01T19:46:36.910Z,6.69
2023-03-01T19:49:04.487Z,6.53
2023-03-01T19:51:33.522Z,6.65
2023-03-01T19:54:00.759Z,6.57
2023-03-01T19:56:27.814Z,6.58
2023-03-01T19:59:00.403Z,6.51
2023-03-01T20:01:29.910Z,6.47
2023-03-01T20:03:57.080Z,6.43
2023-03-01T20:06:25.705Z,6.41
2023-03-01T20:08:53.256Z,6.38
2023-03-01T20:11:21.231Z,6.19
2023-03-01T20:13:48.388Z,6.22
2023-03-01T20:16:20.248Z,6.34
2023-03-01T20:18:47.693Z,6.28
2023-03-01T20:21:24.008Z,6.22
2023-03-01T20:23:52.773Z,6.23
2023-03-01T20:26:20.981Z,6.13
2023-03-01T20:28:50.803Z,6.21
2023-03-01T20:31:20.603Z,6.17
2023-03-01T20:33:48.440Z,6.17
2023-03-01T20:36:16.503Z,6.11
2023-03-01T20:38:43.790Z,6.08
2023-03-01T20:41:13.337Z,5.95
2023-03-01T20:43:42.624Z,5.98
2023-03-01T20:46:13.082Z,5.94
2023-03-01T20:48:43.528Z,5.96
2023-03-01T20:51:12.584Z,5.87
2023-03-01T20:53:40.013Z,5.92
2023-03-01T20:56:11.658Z,5.90
2023-03-01T20:58:39.526Z,5.91
2023-03-01T21:01:08.242Z,5.80
2023-03-01T21:03:36.023Z,5.77
2023-03-01T21:06:06.351Z,5.76
2023-03-01T21:08:34.923Z,5.70
2023-03-01T21:11:02.796Z,5.64
2023-03-01T21:13:31.468Z,5.69
2023-03-01T21:16:07.929Z,5.62
2023-03-01T21:18:36.983Z,5.73
2023-03-01T21:21:08.850Z,5.68
2023-03-01T21:23:38.592Z,5.68
2023-03-01T21:26:15.806Z,5.67
2023-03-01T21:28:43.967Z,5.57
2023-03-01T21:31:24.447Z,5.41
2023-03-01T21:33:57.180Z,5.43
2023-03-01T21:36:27.295Z,5.40
2023-03-01T21:38:55.247Z,5.51
2023-03-01T21:41:29.519Z,5.40
2023-03-01T21:44:00.862Z,5.49
2023-03-01T21:46:32.499Z,5.39
2023-03-01T21:48:59.920Z,5.39
2023-03-01T21:51:27.932Z,5.33
2023-03-01T21:53:56.305Z,5.30
2023-03-01T21:56:28.424Z,5.32
2023-03-01T21:58:57.039Z,5.19
2023-03-01T22:01:29.927Z,5.31
2023-03-01T22:04:00.353Z,5.25
2023-03-01T22:06:40.664Z,5.19
2023-03-01T22:09:13.722Z,5.20
2023-03-01T22:11:48.883Z,5.11
2023-03-01T22:14:18.683Z,5.13
2023-03-01T22:16:47.848Z,5.09
2023-03-01T22:19:16.999Z,4.94
2023-03-01T22:21:49.597Z,4.99
2023-03-01T22:24:19.918Z,4.90
2023-03-01T22:26:48.849Z,4.88
2023-03-01T22:29:20.948Z,4.86
2023-03-01T22:31:48.559Z,4.84
2023-03-01T22:34:17.311Z,4.68
2023-03-01T22:36:45.683Z,4.66
2023-03-01T22:39:16.491Z,4.72
2023-03-01T22:41:46.611Z,4.65
2023-03-01T22:44:22.259Z,4.62
2023-03-01T22:46:50.025Z,4.57
2023-03-01T22:49:18.576Z,4.54
2023-03-01T22:51:47.718Z,4.53
2023-03-01T22:54:15.817Z,4.48
2023-03-01T22:56:43.297Z,4.48
2023-03-01T22:59:15.823Z,4.45
2023-03-01T23:01:46.411Z,4.38
2023-03-01T23:04:15.174Z,4.42
2023-03-01T23:06:54.064Z,4.37
2023-03-01T23:09:33.035Z,4.15
2023-03-01T23:12:02.593Z,4.19
2023-03-01T23:14:31.871Z,4.18
2023-03-01T23:17:01.552Z,4.19
2023-03-01T23:19:30.252Z,4.20
2023-03-01T23:21:58.070Z,4.11
2023-03-01T23:24:31.624Z,4.04
2023-03-01T23:27:02.090Z,4.02
2023-03-01T23:29:29.699Z,4.01
2023-03-01T23:31:58.238Z,3.96
2023-03-01T23:34:26.390Z,4.00
2023-03-01T23:36:54.744Z,3.94
2023-03-01T23:39:23.064Z,4.00
2023-03-01T23:41:50.274Z,3.99
2023-03-01T23:44:19.985Z,3.95
2023-03-01T23:46:49.112Z,3.94
2023-03-01T23:49:19.760Z,3.94
2023-03-01T23:51:47.983Z,3.92
2023-03-01T23:54:19.350Z,3.85
2023-03-01T23:56:46.903Z,3.82
2023-03-01T23:59:21.950Z,3.82
